Home   Weather   Germany   Oberursel (Taunus)   Past weeks
Flag for Germany

Past Weather in Oberursel (Taunus), Hesse, Germany — Yesterday and Last 2 Weeks

Currently: 37 °F. Sunny. (Weather station: Frankfurt-M-Flughafen Airport, Germany). See more current weather

Past Weather in Oberursel (Taunus) — Graph

°F

Oberursel (Taunus) Temperature Yesterday

Maximum temperature yesterday: 45 °F (at 1:20 pm)
Minimum temperature yesterday: 30 °F (at 11:50 pm)
Average temperature yesterday: 39 °F

High & Low Weather Summary for the Past Weeks

 TemperatureHumidityPressure
High66 °F (Feb 23, 3:50 pm)100% (Feb 19, 10:50 pm)30.69 "Hg (Feb 19, 10:50 pm)
Low27 °F (Mar 6, 2:20 am)37% (Feb 25, 1:50 pm)29.98 "Hg (Feb 20, 5:50 pm)
Average44 °F75%30.35 "Hg
* Reported Feb 19 9:20 am — Mar 6 9:20 am, Oberursel (Taunus). Weather by CustomWeather, © 2021

Note: Actual official high and low records may vary slightly from our data, if they occured in-between our weather recording intervals... More about our weather records

Oberursel (Taunus) Weather History for the Previous 24 Hours

Scroll right to see more
 ConditionsComfort  
Time TempWeatherWind HumidityBarometerVisibility
9:20 am
Sat, Mar 6
36 °FSunny.8 mph60%30.51 "Hg10 mi
8:50 am34 °FSunny.8 mph70%30.51 "Hg10 mi
8:20 am30 °FSunny.6 mph80%30.51 "Hg10 mi
7:50 am28 °FSunny.6 mph80%30.51 "Hg10 mi
7:20 am28 °FSunny.3 mph74%30.51 "Hg10 mi
6:50 am27 °FClear.3 mph80%30.51 "Hg10 mi
6:20 am27 °FClear.5 mph80%30.51 "Hg10 mi
5:50 am27 °FClear.6 mph80%30.51 "Hg10 mi
5:20 am28 °FClear.3 mph74%30.48 "Hg10 mi
4:50 am27 °FClear.3 mph80%30.48 "Hg10 mi
4:20 am27 °FClear.5 mph80%30.48 "Hg10 mi
3:50 am27 °FClear.3 mph86%30.48 "Hg10 mi
3:20 am27 °FPassing clouds.3 mph86%30.48 "HgN/A
2:50 am27 °FClear.3 mph86%30.48 "Hg10 mi
2:20 am27 °FClear.6 mph86%30.48 "Hg10 mi
1:50 am28 °FClear.5 mph80%30.48 "Hg10 mi
1:20 am28 °FClear.6 mph80%30.48 "Hg10 mi
12:50 am28 °FClear.6 mph80%30.48 "Hg10 mi
12:20 am30 °FPassing clouds.3 mph75%30.48 "HgN/A
11:50 pm
Fri, Mar 5
30 °FClear.5 mph75%30.48 "Hg10 mi
11:20 pm32 °FClear.5 mph69%30.48 "Hg10 mi
10:50 pm34 °FClear.5 mph65%30.48 "Hg10 mi
10:20 pm34 °FClear.5 mph65%30.45 "Hg10 mi
9:50 pm36 °FClear.7 mph65%30.45 "Hg10 mi
9:20 pm37 °FClear.7 mph60%30.45 "Hg10 mi
8:50 pm37 °FClear.7 mph60%30.42 "Hg10 mi
8:20 pm36 °FClear.7 mph65%30.42 "Hg10 mi
7:50 pm36 °FClear.9 mph60%30.42 "Hg10 mi
7:20 pm39 °FPassing clouds.10 mph56%30.42 "HgN/A
6:50 pm39 °FPassing clouds.9 mph52%30.39 "HgN/A
6:20 pm41 °FPassing clouds.12 mph53%30.39 "HgN/A
5:50 pm41 °FPassing clouds.12 mph53%30.36 "HgN/A
5:20 pm43 °FPassing clouds.14 mph49%30.36 "HgN/A
4:50 pm43 °FPassing clouds.16 mph49%30.33 "HgN/A
4:20 pm43 °FPassing clouds.15 mph49%30.33 "HgN/A
3:50 pm43 °FPassing clouds.13 mph49%30.33 "HgN/A
3:20 pm43 °FPassing clouds.13 mph53%30.33 "HgN/A
2:50 pm43 °FScattered clouds.16 mph57%30.30 "HgN/A
2:20 pm43 °FScattered clouds.14 mph53%30.30 "HgN/A
1:50 pm43 °FScattered clouds.13 mph57%30.30 "HgN/A
1:20 pm45 °FScattered clouds.12 mph53%30.27 "HgN/A
12:50 pm43 °FScattered clouds.10 mph57%30.27 "HgN/A
12:20 pm43 °FScattered clouds.14 mph57%30.27 "HgN/A
11:50 am41 °FPassing clouds.15 mph61%30.27 "HgN/A
11:20 am41 °FScattered clouds.16 mph66%30.27 "HgN/A
10:50 am41 °FScattered clouds.17 mph66%30.27 "HgN/A
10:20 am39 °FScattered clouds.13 mph70%30.24 "HgN/A
Weather by CustomWeather, © 2021

See weather overview